createdAt,value
2018-12-24T00:22:04.080Z,-10.89
2018-12-24T00:39:27.528Z,-10.51
2018-12-24T00:42:03.505Z,-10.43
2018-12-24T00:51:28.369Z,-10.09
2018-12-24T00:58:15.859Z,-9.87
2018-12-24T01:00:48.924Z,-9.56
2018-12-24T01:03:22.008Z,-9.31
2018-12-24T01:05:54.902Z,-9.46
2018-12-24T01:08:28.277Z,-9.29
2018-12-24T01:11:01.681Z,-9.13
2018-12-24T01:13:34.634Z,-9.07
2018-12-24T01:16:07.964Z,-9.13
2018-12-24T01:18:40.913Z,-9.57
2018-12-24T01:21:14.364Z,-9.49
2018-12-24T01:23:47.497Z,-9.43
2018-12-24T01:26:20.657Z,-9.46
2018-12-24T01:28:54.023Z,-9.37
2018-12-24T01:31:26.995Z,-9.22
2018-12-24T01:33:59.926Z,-8.79
2018-12-24T01:36:32.932Z,-8.58
2018-12-24T01:39:06.535Z,-8.44
2018-12-24T01:41:39.995Z,-8.53
2018-12-24T01:44:13.492Z,-8.32
2018-12-24T01:46:46.627Z,-7.90
2018-12-24T01:49:19.769Z,-7.92
2018-12-24T01:51:55.620Z,-8.02
2018-12-24T01:54:28.839Z,-7.93
2018-12-24T01:57:01.974Z,-7.93
2018-12-24T01:59:58.282Z,-7.62
2018-12-24T02:02:42.312Z,-7.45
2018-12-24T02:05:16.724Z,-7.54
2018-12-24T02:07:49.898Z,-7.61
2018-12-24T02:10:22.755Z,-7.57
2018-12-24T02:13:15.456Z,-7.27
2018-12-24T02:15:48.335Z,-7.25
2018-12-24T02:18:21.289Z,-7.27
2018-12-24T02:20:54.393Z,-7.17
2018-12-24T02:23:32.537Z,-7.15
2018-12-24T02:26:06.100Z,-7.21
2018-12-24T02:29:09.453Z,-7.27
2018-12-24T02:31:44.186Z,-7.27
2018-12-24T02:34:17.177Z,-7.35
2018-12-24T02:36:50.185Z,-6.98
2018-12-24T02:39:23.056Z,-7.10
2018-12-24T02:41:56.030Z,-7.08
2018-12-24T02:44:28.992Z,-6.86
2018-12-24T02:47:12.881Z,-6.41
2018-12-24T02:49:50.348Z,-6.03
2018-12-24T02:52:23.464Z,-5.91
2018-12-24T02:54:56.702Z,-5.81
2018-12-24T02:57:29.969Z,-5.99
2018-12-24T03:00:03.087Z,-5.77
2018-12-24T03:02:36.201Z,-5.60
2018-12-24T03:05:09.422Z,-5.12
2018-12-24T03:07:42.585Z,-5.15
2018-12-24T03:10:15.705Z,-5.40
2018-12-24T03:12:48.771Z,-5.42
2018-12-24T03:15:21.865Z,-5.32
2018-12-24T03:17:54.865Z,-4.97
2018-12-24T03:20:27.801Z,-4.70
2018-12-24T03:23:00.988Z,-4.88
2018-12-24T03:25:34.295Z,-5.21
2018-12-24T03:28:07.124Z,-5.24
2018-12-24T03:30:41.306Z,-5.32
2018-12-24T03:33:14.431Z,-5.31
2018-12-24T03:35:47.720Z,-5.36
2018-12-24T03:38:20.677Z,-5.31
2018-12-24T03:40:54.078Z,-5.13
2018-12-24T03:43:27.142Z,-5.11
2018-12-24T03:46:00.693Z,-5.24
2018-12-24T03:48:33.722Z,-5.31
2018-12-24T03:51:07.081Z,-5.15
2018-12-24T03:53:40.174Z,-5.34
2018-12-24T03:56:13.249Z,-5.20
2018-12-24T03:58:46.685Z,-4.93
2018-12-24T04:01:19.615Z,-4.75
2018-12-24T04:03:52.565Z,-4.73
2018-12-24T04:06:25.594Z,-4.64
2018-12-24T04:08:58.838Z,-4.87
2018-12-24T04:11:32.353Z,-4.86
2018-12-24T04:14:05.570Z,-4.66
2018-12-24T04:16:38.516Z,-4.52
2018-12-24T04:19:11.680Z,-4.60
2018-12-24T04:21:48.690Z,-4.79
2018-12-24T04:24:21.725Z,-4.92
2018-12-24T04:26:55.501Z,-5.01
2018-12-24T04:29:28.695Z,-4.99
2018-12-24T04:32:01.865Z,-4.73
2018-12-24T04:34:35.362Z,-4.52
2018-12-24T04:37:08.529Z,-4.25
2018-12-24T04:39:41.632Z,-4.17
2018-12-24T04:42:14.668Z,-4.18
2018-12-24T04:45:06.993Z,-4.11
2018-12-24T04:47:40.295Z,-3.90
2018-12-24T04:50:13.147Z,-4.16
2018-12-24T04:52:46.228Z,-4.15
2018-12-24T04:55:19.447Z,-3.90
2018-12-24T04:57:52.462Z,-3.77
2018-12-24T05:00:25.639Z,-3.61
2018-12-24T05:02:58.890Z,-3.50
2018-12-24T05:05:32.532Z,-3.64
2018-12-24T05:08:05.697Z,-3.60
2018-12-24T05:10:38.681Z,-3.58
2018-12-24T05:13:11.777Z,-3.62
2018-12-24T05:15:48.099Z,-3.60
2018-12-24T05:18:20.989Z,-3.67
2018-12-24T05:20:54.512Z,-3.78
2018-12-24T05:23:27.696Z,-3.72
2018-12-24T05:26:00.753Z,-3.68
2018-12-24T05:28:33.647Z,-3.70
2018-12-24T05:31:06.568Z,-3.71
2018-12-24T05:33:42.008Z,-3.62
2018-12-24T05:36:13.830Z,-3.62
2018-12-24T05:38:46.931Z,-3.54
2018-12-24T05:41:20.179Z,-3.55
2018-12-24T05:43:52.919Z,-3.67
2018-12-24T05:46:26.028Z,-3.52
2018-12-24T05:48:59.039Z,-3.40
2018-12-24T05:51:32.414Z,-3.46
2018-12-24T05:54:05.491Z,-3.48
2018-12-24T05:56:38.773Z,-3.56
2018-12-24T05:59:11.786Z,-3.44
2018-12-24T06:02:07.154Z,-3.30
2018-12-24T06:04:40.198Z,-3.32
2018-12-24T06:07:13.705Z,-3.54
2018-12-24T06:09:47.256Z,-3.80
2018-12-24T06:12:20.344Z,-3.88
2018-12-24T06:14:53.510Z,-3.88
2018-12-24T06:17:26.497Z,-3.96
2018-12-24T06:19:59.762Z,-3.93
2018-12-24T06:22:32.876Z,-3.88
2018-12-24T06:25:05.970Z,-3.91
2018-12-24T06:27:39.180Z,-3.93
2018-12-24T06:30:12.614Z,-3.97
2018-12-24T06:32:46.115Z,-4.07
2018-12-24T06:35:19.150Z,-4.11
2018-12-24T06:37:52.101Z,-4.11
2018-12-24T06:40:25.158Z,-4.11
2018-12-24T06:42:58.516Z,-4.07
2018-12-24T06:45:31.638Z,-4.02
2018-12-24T06:48:04.737Z,-4.10
2018-12-24T06:50:37.804Z,-4.01
2018-12-24T06:53:10.798Z,-4.12
2018-12-24T06:55:43.946Z,-4.05
2018-12-24T06:58:16.938Z,-4.04
2018-12-24T07:00:50.308Z,-4.07
2018-12-24T07:03:23.398Z,-4.09
2018-12-24T07:05:56.519Z,-4.05
2018-12-24T07:08:29.689Z,-4.08
2018-12-24T07:11:02.835Z,-4.07
2018-12-24T07:13:36.172Z,-4.03
2018-12-24T07:16:09.294Z,-3.97
2018-12-24T07:18:42.362Z,-4.05
2018-12-24T07:21:15.308Z,-4.19
2018-12-24T07:23:48.289Z,-4.20
2018-12-24T07:26:21.396Z,-4.15
2018-12-24T07:28:58.999Z,-4.18
2018-12-24T07:31:28.659Z,-4.22
2018-12-24T07:34:01.857Z,-4.31
2018-12-24T07:36:37.301Z,-4.26
2018-12-24T07:39:09.896Z,-4.30
2018-12-24T07:41:43.174Z,-4.30
2018-12-24T07:44:23.910Z,-4.36
2018-12-24T07:46:50.675Z,-4.33
2018-12-24T07:49:23.789Z,-4.46
2018-12-24T07:51:56.796Z,-4.45
2018-12-24T07:54:29.969Z,-4.55
2018-12-24T07:57:03.278Z,-4.49
2018-12-24T08:02:26.338Z,-4.48
2018-12-24T08:04:59.543Z,-4.57
2018-12-24T08:07:32.559Z,-4.82
2018-12-24T08:10:05.621Z,-5.03
2018-12-24T08:12:38.747Z,-5.25
2018-12-24T08:15:12.154Z,-5.16
2018-12-24T08:17:45.422Z,-5.11
2018-12-24T08:20:18.678Z,-4.87
2018-12-24T08:22:54.652Z,-4.91
2018-12-24T08:25:27.580Z,-4.98
2018-12-24T08:28:00.705Z,-4.95
2018-12-24T08:30:33.708Z,-5.20
2018-12-24T08:33:06.741Z,-5.46
2018-12-24T08:35:39.504Z,-5.72
2018-12-24T08:38:12.478Z,-5.87
2018-12-24T08:40:45.298Z,-5.88
2018-12-24T08:43:18.316Z,-5.90
2018-12-24T08:45:51.373Z,-6.03
2018-12-24T08:48:24.654Z,-5.95
2018-12-24T08:50:57.584Z,-5.86
2018-12-24T08:53:30.556Z,-5.90
2018-12-24T08:56:03.655Z,-5.94
2018-12-24T08:58:36.594Z,-5.98
2018-12-24T09:01:09.783Z,-6.09
2018-12-24T09:03:42.774Z,-6.03
2018-12-24T09:06:15.781Z,-5.87
2018-12-24T09:08:49.392Z,-5.90
2018-12-24T09:11:22.567Z,-6.06
2018-12-24T09:13:55.620Z,-6.16
2018-12-24T09:16:28.562Z,-6.19
2018-12-24T09:19:04.336Z,-6.24
2018-12-24T09:21:37.455Z,-6.04
2018-12-24T09:24:10.303Z,-5.96
2018-12-24T09:26:43.313Z,-6.00
2018-12-24T09:29:16.407Z,-6.11
2018-12-24T09:31:49.272Z,-5.99
2018-12-24T09:34:22.242Z,-6.07
2018-12-24T09:36:55.151Z,-6.09
2018-12-24T09:39:28.160Z,-6.08
2018-12-24T09:42:01.217Z,-5.99
2018-12-24T09:44:34.558Z,-5.90
2018-12-24T09:47:07.657Z,-5.47
2018-12-24T09:49:40.712Z,-5.29
2018-12-24T09:52:14.735Z,-5.16
2018-12-24T09:54:47.843Z,-5.33
2018-12-24T09:57:21.083Z,-5.27
2018-12-24T09:59:54.180Z,-5.50
2018-12-24T10:02:29.904Z,-5.71
2018-12-24T10:05:03.039Z,-5.47
2018-12-24T10:07:35.959Z,-5.39
2018-12-24T10:10:11.030Z,-5.53
2018-12-24T10:12:44.054Z,-5.61
2018-12-24T10:15:16.950Z,-5.63
2018-12-24T10:17:49.966Z,-5.60
2018-12-24T10:20:23.006Z,-5.71
2018-12-24T10:22:56.190Z,-5.68
2018-12-24T10:25:29.307Z,-5.78
2018-12-24T10:28:02.157Z,-5.79
2018-12-24T10:30:35.217Z,-5.76
2018-12-24T10:33:08.177Z,-5.70
2018-12-24T10:35:41.127Z,-5.80
2018-12-24T10:38:14.063Z,-5.67
2018-12-24T10:40:49.852Z,-5.73
2018-12-24T10:43:22.855Z,-5.83
2018-12-24T10:45:56.037Z,-5.73
2018-12-24T10:48:29.638Z,-5.68
2018-12-24T10:51:02.809Z,-5.48
2018-12-24T10:53:36.245Z,-5.71
2018-12-24T10:56:09.233Z,-5.81
2018-12-24T10:58:42.720Z,-5.97
2018-12-24T11:01:15.704Z,-5.90
2018-12-24T11:03:50.747Z,-6.02
2018-12-24T11:06:23.684Z,-6.40
2018-12-24T11:08:56.622Z,-6.54
2018-12-24T11:11:30.135Z,-6.41
2018-12-24T11:14:02.942Z,-6.54
2018-12-24T11:16:35.928Z,-6.53
2018-12-24T11:19:08.884Z,-6.68
2018-12-24T11:21:42.073Z,-6.92
2018-12-24T11:24:15.670Z,-6.90
2018-12-24T11:26:49.333Z,-6.82
2018-12-24T11:29:22.367Z,-6.84
2018-12-24T11:31:55.523Z,-7.08
2018-12-24T11:34:28.756Z,-7.06
2018-12-24T11:37:01.922Z,-7.11
2018-12-24T11:39:34.897Z,-7.07
2018-12-24T11:42:08.426Z,-7.02
2018-12-24T11:44:41.704Z,-6.90
2018-12-24T11:47:15.121Z,-6.90
2018-12-24T11:49:48.229Z,-6.61
2018-12-24T11:52:21.608Z,-6.47
2018-12-24T11:54:54.696Z,-6.32
2018-12-24T11:57:27.696Z,-6.36
2018-12-24T12:00:00.800Z,-6.55
2018-12-24T12:02:33.663Z,-6.47
2018-12-24T12:05:06.971Z,-6.43
2018-12-24T12:07:40.105Z,-6.52
2018-12-24T12:10:13.434Z,-6.57
2018-12-24T12:12:46.626Z,-6.72
2018-12-24T12:15:19.661Z,-6.55
2018-12-24T12:17:52.780Z,-6.45
2018-12-24T12:20:25.812Z,-6.43
2018-12-24T12:22:58.619Z,-6.35
2018-12-24T12:25:31.747Z,-6.56
2018-12-24T12:28:04.781Z,-6.46
2018-12-24T12:30:38.320Z,-6.41
2018-12-24T12:33:11.641Z,-6.36
2018-12-24T12:35:44.950Z,-6.32
2018-12-24T12:38:18.464Z,-6.48
2018-12-24T12:40:51.697Z,-6.54
2018-12-24T12:43:24.782Z,-6.47
2018-12-24T12:45:57.662Z,-6.41
2018-12-24T12:48:30.730Z,-6.47
2018-12-24T12:51:03.696Z,-6.45
2018-12-24T12:53:36.804Z,-6.48
2018-12-24T12:56:09.825Z,-6.48
2018-12-24T12:58:42.860Z,-6.54
2018-12-24T13:01:15.986Z,-6.57
2018-12-24T13:03:49.062Z,-6.61
2018-12-24T13:06:22.134Z,-6.64
2018-12-24T13:08:55.257Z,-6.59
2018-12-24T13:11:28.174Z,-6.62
2018-12-24T13:14:01.378Z,-6.67
2018-12-24T13:16:34.485Z,-6.62
2018-12-24T13:19:07.714Z,-6.75
2018-12-24T13:21:41.945Z,-6.70
2018-12-24T13:24:15.131Z,-6.64
2018-12-24T13:26:48.170Z,-6.85
2018-12-24T13:29:21.163Z,-6.91
2018-12-24T13:31:54.586Z,-6.76
2018-12-24T13:34:27.779Z,-6.86
2018-12-24T13:37:00.890Z,-6.86
2018-12-24T13:39:33.877Z,-6.73
2018-12-24T13:42:06.760Z,-7.02
2018-12-24T13:44:40.065Z,-6.91
2018-12-24T13:47:13.267Z,-6.77
2018-12-24T13:49:46.313Z,-6.68
2018-12-24T13:52:19.516Z,-6.85
2018-12-24T13:54:52.793Z,-6.83
2018-12-24T13:57:26.411Z,-6.81
2018-12-24T13:59:59.619Z,-6.64
2018-12-24T14:02:32.595Z,-6.77
2018-12-24T14:05:05.500Z,-6.91
2018-12-24T14:07:38.502Z,-7.00
2018-12-24T14:10:11.514Z,-6.94
2018-12-24T14:12:44.694Z,-6.85
2018-12-24T14:15:17.591Z,-6.82
2018-12-24T14:17:50.622Z,-6.84
2018-12-24T14:20:23.676Z,-6.87
2018-12-24T14:22:56.794Z,-7.26
2018-12-24T14:25:29.762Z,-7.11
2018-12-24T14:28:03.124Z,-6.87
2018-12-24T14:30:39.158Z,-7.06
2018-12-24T14:33:12.175Z,-7.16
2018-12-24T14:35:45.162Z,-7.32
2018-12-24T14:38:17.964Z,-7.45
2018-12-24T14:40:51.625Z,-7.50
2018-12-24T14:43:25.020Z,-7.56
2018-12-24T14:45:58.100Z,-7.64
2018-12-24T14:48:31.109Z,-7.56
2018-12-24T14:51:04.208Z,-7.68
2018-12-24T14:53:37.466Z,-7.79
2018-12-24T14:56:10.487Z,-7.85
2018-12-24T14:58:43.361Z,-7.86
2018-12-24T15:01:16.594Z,-7.86
2018-12-24T15:03:49.800Z,-7.70
2018-12-24T15:06:22.822Z,-7.70
2018-12-24T15:08:55.796Z,-7.71
2018-12-24T15:11:28.735Z,-7.70
2018-12-24T15:14:02.364Z,-7.87
2018-12-24T15:16:35.947Z,-7.73
2018-12-24T15:19:09.142Z,-7.48
2018-12-24T15:21:42.298Z,-7.44
2018-12-24T15:24:15.574Z,-7.20
2018-12-24T15:26:48.670Z,-7.18
2018-12-24T15:29:21.675Z,-7.25
2018-12-24T15:31:54.755Z,-7.10
2018-12-24T15:34:27.679Z,-6.92
2018-12-24T15:37:00.665Z,-6.90
2018-12-24T15:39:33.554Z,-6.93
2018-12-24T15:42:06.580Z,-6.94
2018-12-24T15:44:39.533Z,-6.90
2018-12-24T15:47:12.876Z,-6.90
2018-12-24T15:49:46.317Z,-6.91
2018-12-24T15:52:19.176Z,-6.98
2018-12-24T15:54:52.309Z,-6.94
2018-12-24T15:57:25.339Z,-6.85
2018-12-24T15:59:58.320Z,-6.94
2018-12-24T16:02:31.556Z,-6.94
2018-12-24T16:05:07.293Z,-7.05
2018-12-24T16:07:40.379Z,-7.08
2018-12-24T16:10:13.469Z,-7.13
2018-12-24T16:12:46.558Z,-7.20
2018-12-24T16:15:19.595Z,-7.23
2018-12-24T16:17:52.702Z,-7.27
2018-12-24T16:20:25.948Z,-7.17
2018-12-24T16:22:58.987Z,-7.31
2018-12-24T16:25:31.945Z,-7.22
2018-12-24T16:28:04.732Z,-7.14
2018-12-24T16:30:37.703Z,-7.29
2018-12-24T16:33:11.607Z,-7.22
2018-12-24T16:35:44.598Z,-7.21
2018-12-24T16:38:17.565Z,-7.23
2018-12-24T16:40:50.707Z,-7.31
2018-12-24T16:43:24.168Z,-7.57
2018-12-24T16:45:57.260Z,-7.79
2018-12-24T16:48:30.605Z,-7.59
2018-12-24T16:51:03.752Z,-7.63
2018-12-24T16:53:40.620Z,-7.79
2018-12-24T16:56:12.481Z,-8.00
2018-12-24T16:58:45.431Z,-7.86
2018-12-24T17:01:18.839Z,-7.87
2018-12-24T17:03:52.003Z,-8.02
2018-12-24T17:06:25.007Z,-8.15
2018-12-24T17:09:00.123Z,-8.34
2018-12-24T17:11:32.656Z,-8.42
2018-12-24T17:14:05.899Z,-8.49
2018-12-24T17:16:39.072Z,-8.50
2018-12-24T17:19:15.597Z,-8.42
2018-12-24T17:21:48.436Z,-8.29
2018-12-24T17:24:21.783Z,-8.39
2018-12-24T17:26:55.019Z,-8.06
2018-12-24T17:29:28.068Z,-8.12
2018-12-24T17:32:01.253Z,-8.26
2018-12-24T17:34:34.173Z,-8.19
2018-12-24T17:37:06.739Z,-8.39
2018-12-24T17:39:40.217Z,-8.26
2018-12-24T17:42:13.456Z,-8.20
2018-12-24T17:44:46.322Z,-8.23
2018-12-24T17:47:20.146Z,-8.27
2018-12-24T17:49:53.253Z,-8.45
2018-12-24T17:52:26.410Z,-8.43
2018-12-24T17:54:59.478Z,-8.46
2018-12-24T17:57:32.608Z,-8.46
2018-12-24T18:00:07.298Z,-8.49
2018-12-24T18:02:40.657Z,-8.55
2018-12-24T18:05:14.481Z,-8.66
2018-12-24T18:07:47.748Z,-8.63
2018-12-24T18:10:20.934Z,-8.65
2018-12-24T18:12:53.820Z,-8.64
2018-12-24T18:15:29.914Z,-8.70
2018-12-24T18:18:02.857Z,-8.69
2018-12-24T18:20:35.845Z,-8.65
2018-12-24T18:23:09.001Z,-8.58
2018-12-24T18:25:42.497Z,-8.62
2018-12-24T18:28:15.789Z,-8.53
2018-12-24T18:30:48.695Z,-8.53
2018-12-24T18:33:21.615Z,-8.53
2018-12-24T18:35:54.520Z,-8.35
2018-12-24T18:38:27.844Z,-8.42
2018-12-24T18:41:00.977Z,-8.33
2018-12-24T18:43:33.899Z,-8.05
2018-12-24T18:46:07.187Z,-8.30
2018-12-24T18:48:40.321Z,-8.23
2018-12-24T18:51:13.439Z,-8.13
2018-12-24T18:53:46.384Z,-8.17
2018-12-24T18:56:19.534Z,-8.18
2018-12-24T18:58:52.834Z,-8.19
2018-12-24T19:01:26.171Z,-8.07
2018-12-24T19:03:59.678Z,-7.74
2018-12-24T19:06:32.415Z,-7.70
2018-12-24T19:09:06.846Z,-7.54
2018-12-24T19:11:41.969Z,-7.54
2018-12-24T19:14:14.927Z,-7.29
2018-12-24T19:16:47.974Z,-7.16
2018-12-24T19:19:21.000Z,-6.85
2018-12-24T19:21:54.154Z,-6.40
2018-12-24T19:24:27.158Z,-5.99
2018-12-24T19:27:00.175Z,-6.09
2018-12-24T19:29:32.961Z,-5.90
2018-12-24T19:32:06.426Z,-5.59
2018-12-24T19:34:39.487Z,-5.65
2018-12-24T19:37:12.518Z,-5.31
2018-12-24T19:39:45.576Z,-5.28
2018-12-24T19:42:18.382Z,-5.21
2018-12-24T19:44:51.409Z,-5.04
2018-12-24T19:47:24.625Z,-4.90
2018-12-24T19:49:58.059Z,-4.98
2018-12-24T19:52:31.101Z,-4.99
2018-12-24T19:55:04.048Z,-4.84
2018-12-24T19:57:36.845Z,-4.78
2018-12-24T20:00:10.878Z,-4.85
2018-12-24T20:02:44.062Z,-4.77
2018-12-24T20:05:17.159Z,-4.75
2018-12-24T20:07:50.516Z,-4.71
2018-12-24T20:10:23.387Z,-4.71
2018-12-24T20:12:57.275Z,-4.61
2018-12-24T20:15:31.013Z,-4.54
2018-12-24T20:18:04.015Z,-4.63
2018-12-24T20:20:37.397Z,-4.61
2018-12-24T20:23:10.823Z,-4.56
2018-12-24T20:25:43.967Z,-4.60
2018-12-24T20:28:17.386Z,-4.60
2018-12-24T20:30:50.594Z,-4.57
2018-12-24T20:33:23.733Z,-4.52
2018-12-24T20:35:56.990Z,-4.49
2018-12-24T20:38:36.986Z,-4.50
2018-12-24T20:41:04.093Z,-4.57
2018-12-24T20:43:37.465Z,-4.49
2018-12-24T20:46:12.817Z,-4.54
2018-12-24T20:48:46.044Z,-4.54
2018-12-24T20:51:19.087Z,-4.63
2018-12-24T20:53:52.070Z,-4.72
2018-12-24T20:56:25.203Z,-4.79
2018-12-24T20:58:58.270Z,-4.78
2018-12-24T21:01:31.285Z,-4.78
2018-12-24T21:04:04.346Z,-4.85
2018-12-24T21:06:37.281Z,-4.87
2018-12-24T21:09:10.227Z,-4.77
2018-12-24T21:11:43.390Z,-4.90
2018-12-24T21:14:16.372Z,-4.83
2018-12-24T21:16:52.715Z,-5.06
2018-12-24T21:19:25.906Z,-5.13
2018-12-24T21:21:59.185Z,-5.10
2018-12-24T21:24:32.163Z,-5.11
2018-12-24T21:27:05.528Z,-5.15
2018-12-24T21:29:38.684Z,-5.21
2018-12-24T21:32:11.740Z,-5.29
2018-12-24T21:34:44.693Z,-5.41
2018-12-24T21:37:17.678Z,-5.52
2018-12-24T21:39:50.539Z,-5.49
2018-12-24T21:42:29.698Z,-5.57
2018-12-24T21:45:02.752Z,-5.79
2018-12-24T21:47:35.601Z,-5.77
2018-12-24T21:50:08.506Z,-5.90
2018-12-24T21:52:41.592Z,-5.88
2018-12-24T21:55:14.445Z,-5.91
2018-12-24T21:57:47.554Z,-5.92
2018-12-24T22:00:20.761Z,-5.95
2018-12-24T22:02:53.752Z,-6.08
2018-12-24T22:05:26.693Z,-6.10
2018-12-24T22:07:59.807Z,-6.11
2018-12-24T22:10:32.804Z,-6.26
2018-12-24T22:13:05.697Z,-6.33
2018-12-24T22:15:38.678Z,-6.29
2018-12-24T22:18:11.903Z,-6.41
2018-12-24T22:20:45.317Z,-6.29
2018-12-24T22:23:18.333Z,-6.45
2018-12-24T22:25:51.257Z,-6.51
2018-12-24T22:28:24.476Z,-6.49
2018-12-24T22:30:57.525Z,-6.54
2018-12-24T22:33:30.587Z,-6.69
2018-12-24T22:36:03.250Z,-6.70
2018-12-24T22:38:36.433Z,-6.63
2018-12-24T22:41:10.060Z,-6.85
2018-12-24T22:43:43.096Z,-6.91
2018-12-24T22:46:16.064Z,-6.91
2018-12-24T22:48:49.045Z,-6.92
2018-12-24T22:51:22.059Z,-6.91
2018-12-24T22:53:55.135Z,-6.93
2018-12-24T22:56:28.197Z,-7.02
2018-12-24T22:59:01.227Z,-7.03
2018-12-24T23:01:34.326Z,-7.14
2018-12-24T23:04:07.065Z,-7.31
2018-12-24T23:06:40.040Z,-7.31
2018-12-24T23:09:13.354Z,-7.23
2018-12-24T23:11:46.841Z,-7.30
2018-12-24T23:14:19.913Z,-7.19
2018-12-24T23:16:53.085Z,-7.26
2018-12-24T23:19:26.256Z,-7.42
2018-12-24T23:21:59.318Z,-7.38
2018-12-24T23:24:32.191Z,-7.31
2018-12-24T23:27:05.208Z,-7.34
2018-12-24T23:29:38.296Z,-7.49
2018-12-24T23:32:11.551Z,-7.50
2018-12-24T23:34:44.253Z,-7.41
2018-12-24T23:37:17.283Z,-7.52
2018-12-24T23:39:50.354Z,-7.54
2018-12-24T23:42:23.334Z,-7.49
2018-12-24T23:44:56.414Z,-7.60
2018-12-24T23:47:29.433Z,-7.70
2018-12-24T23:50:02.171Z,-7.63
2018-12-24T23:52:35.775Z,-7.64
2018-12-24T23:55:09.520Z,-7.71
2018-12-24T23:57:42.618Z,-7.58
